sensor_id;sensor_type;location;lat;lon;timestamp;temperature;humidity
57843;DHT22;43673;51.058;3.734;2023-09-07T00:01:29;22.50;99.90
57843;DHT22;43673;51.058;3.734;2023-09-07T00:03:55;22.40;99.90
57843;DHT22;43673;51.058;3.734;2023-09-07T00:06:20;22.30;99.90
57843;DHT22;43673;51.058;3.734;2023-09-07T00:08:46;22.30;99.90
57843;DHT22;43673;51.058;3.734;2023-09-07T00:11:12;22.30;99.90
57843;DHT22;43673;51.058;3.734;2023-09-07T00:13:37;22.20;99.90
57843;DHT22;43673;51.058;3.734;2023-09-07T00:16:04;22.20;99.90
57843;DHT22;43673;51.058;3.734;2023-09-07T00:18:31;22.10;99.90
57843;DHT22;43673;51.058;3.734;2023-09-07T00:20:58;22.00;99.90
57843;DHT22;43673;51.058;3.734;2023-09-07T00:23:24;22.00;99.90
57843;DHT22;43673;51.058;3.734;2023-09-07T00:25:49;22.00;99.90
57843;DHT22;43673;51.058;3.734;2023-09-07T00:28:15;21.90;99.90
57843;DHT22;43673;51.058;3.734;2023-09-07T00:30:41;21.80;99.90
57843;DHT22;43673;51.058;3.734;2023-09-07T00:33:07;21.80;99.90
57843;DHT22;43673;51.058;3.734;2023-09-07T00:35:33;21.80;99.90
57843;DHT22;43673;51.058;3.734;2023-09-07T00:38:00;21.80;99.90
57843;DHT22;43673;51.058;3.734;2023-09-07T00:40:25;21.80;99.90
57843;DHT22;43673;51.058;3.734;2023-09-07T00:42:52;21.70;99.90
57843;DHT22;43673;51.058;3.734;2023-09-07T00:45:18;21.70;99.90
57843;DHT22;43673;51.058;3.734;2023-09-07T00:47:44;21.70;99.90
57843;DHT22;43673;51.058;3.734;2023-09-07T00:50:10;21.60;99.90
57843;DHT22;43673;51.058;3.734;2023-09-07T00:52:41;21.60;99.90
57843;DHT22;43673;51.058;3.734;2023-09-07T00:55:08;21.60;99.90
57843;DHT22;43673;51.058;3.734;2023-09-07T00:57:35;21.50;99.90
57843;DHT22;43673;51.058;3.734;2023-09-07T01:00:03;21.40;99.90
57843;DHT22;43673;51.058;3.734;2023-09-07T01:02:31;21.30;99.90
57843;DHT22;43673;51.058;3.734;2023-09-07T01:04:57;21.20;99.90
57843;DHT22;43673;51.058;3.734;2023-09-07T01:07:38;21.10;99.90
57843;DHT22;43673;51.058;3.734;2023-09-07T01:10:06;21.10;99.90
57843;DHT22;43673;51.058;3.734;2023-09-07T01:12:33;21.20;99.90
57843;DHT22;43673;51.058;3.734;2023-09-07T01:14:59;21.10;99.90
57843;DHT22;43673;51.058;3.734;2023-09-07T01:17:25;21.10;99.90
57843;DHT22;43673;51.058;3.734;2023-09-07T01:19:52;21.10;99.90
57843;DHT22;43673;51.058;3.734;2023-09-07T01:22:20;21.10;99.90
57843;DHT22;43673;51.058;3.734;2023-09-07T01:24:49;21.00;99.90
57843;DHT22;43673;51.058;3.734;2023-09-07T01:27:16;21.00;99.90
57843;DHT22;43673;51.058;3.734;2023-09-07T01:29:42;20.90;99.90
57843;DHT22;43673;51.058;3.734;2023-09-07T01:32:07;21.00;99.90
57843;DHT22;43673;51.058;3.734;2023-09-07T01:34:35;21.00;99.90
57843;DHT22;43673;51.058;3.734;2023-09-07T01:37:01;21.00;99.90
57843;DHT22;43673;51.058;3.734;2023-09-07T01:39:27;20.90;99.90
57843;DHT22;43673;51.058;3.734;2023-09-07T01:41:52;20.80;99.90
57843;DHT22;43673;51.058;3.734;2023-09-07T01:44:18;20.80;99.90
57843;DHT22;43673;51.058;3.734;2023-09-07T01:46:44;20.70;99.90
57843;DHT22;43673;51.058;3.734;2023-09-07T01:49:09;20.70;99.90
57843;DHT22;43673;51.058;3.734;2023-09-07T01:51:35;20.70;99.90
57843;DHT22;43673;51.058;3.734;2023-09-07T01:54:01;20.70;99.90
57843;DHT22;43673;51.058;3.734;2023-09-07T01:56:26;20.60;99.90
57843;DHT22;43673;51.058;3.734;2023-09-07T01:58:52;20.60;99.90
57843;DHT22;43673;51.058;3.734;2023-09-07T02:01:25;20.50;99.90
57843;DHT22;43673;51.058;3.734;2023-09-07T02:03:51;20.40;99.90
57843;DHT22;43673;51.058;3.734;2023-09-07T02:06:17;20.30;99.90
57843;DHT22;43673;51.058;3.734;2023-09-07T02:08:43;20.30;99.90
57843;DHT22;43673;51.058;3.734;2023-09-07T02:11:09;20.40;99.90
57843;DHT22;43673;51.058;3.734;2023-09-07T02:13:35;20.40;99.90
57843;DHT22;43673;51.058;3.734;2023-09-07T02:16:04;20.40;99.90
57843;DHT22;43673;51.058;3.734;2023-09-07T02:18:33;20.30;99.90
57843;DHT22;43673;51.058;3.734;2023-09-07T02:21:03;20.40;99.90
57843;DHT22;43673;51.058;3.734;2023-09-07T02:23:32;20.20;99.90
57843;DHT22;43673;51.058;3.734;2023-09-07T02:25:59;20.20;99.90
57843;DHT22;43673;51.058;3.734;2023-09-07T02:28:25;20.20;99.90
57843;DHT22;43673;51.058;3.734;2023-09-07T02:30:51;20.10;99.90
57843;DHT22;43673;51.058;3.734;2023-09-07T02:33:17;20.10;99.90
57843;DHT22;43673;51.058;3.734;2023-09-07T02:35:42;20.00;99.90
57843;DHT22;43673;51.058;3.734;2023-09-07T02:38:08;20.20;99.90
57843;DHT22;43673;51.058;3.734;2023-09-07T02:40:40;20.00;99.90
57843;DHT22;43673;51.058;3.734;2023-09-07T02:43:07;20.00;99.90
57843;DHT22;43673;51.058;3.734;2023-09-07T02:45:34;20.00;99.90
57843;DHT22;43673;51.058;3.734;2023-09-07T02:48:00;19.90;99.90
57843;DHT22;43673;51.058;3.734;2023-09-07T02:50:25;19.90;99.90
57843;DHT22;43673;51.058;3.734;2023-09-07T02:52:51;19.90;99.90
57843;DHT22;43673;51.058;3.734;2023-09-07T02:55:17;19.90;99.90
57843;DHT22;43673;51.058;3.734;2023-09-07T02:57:42;19.90;99.90
57843;DHT22;43673;51.058;3.734;2023-09-07T03:00:08;19.90;99.90
57843;DHT22;43673;51.058;3.734;2023-09-07T03:02:36;19.80;99.90
57843;DHT22;43673;51.058;3.734;2023-09-07T03:05:02;19.90;99.90
57843;DHT22;43673;51.058;3.734;2023-09-07T03:07:34;19.90;99.90
57843;DHT22;43673;51.058;3.734;2023-09-07T03:09:59;19.80;99.90
57843;DHT22;43673;51.058;3.734;2023-09-07T03:12:26;19.80;99.90
57843;DHT22;43673;51.058;3.734;2023-09-07T03:14:52;19.80;99.90
57843;DHT22;43673;51.058;3.734;2023-09-07T03:17:18;19.70;99.90
57843;DHT22;43673;51.058;3.734;2023-09-07T03:19:48;19.70;99.90
57843;DHT22;43673;51.058;3.734;2023-09-07T03:22:15;19.60;99.90
57843;DHT22;43673;51.058;3.734;2023-09-07T03:24:41;19.50;99.90
57843;DHT22;43673;51.058;3.734;2023-09-07T03:27:06;19.40;99.90
57843;DHT22;43673;51.058;3.734;2023-09-07T03:29:32;19.40;99.90
57843;DHT22;43673;51.058;3.734;2023-09-07T03:31:59;19.40;99.90
57843;DHT22;43673;51.058;3.734;2023-09-07T03:34:25;19.40;99.90
57843;DHT22;43673;51.058;3.734;2023-09-07T03:36:51;19.30;99.90
57843;DHT22;43673;51.058;3.734;2023-09-07T03:39:17;19.40;99.90
57843;DHT22;43673;51.058;3.734;2023-09-07T03:41:44;19.30;99.90
57843;DHT22;43673;51.058;3.734;2023-09-07T03:44:10;19.30;99.90
57843;DHT22;43673;51.058;3.734;2023-09-07T03:46:36;19.30;99.90
57843;DHT22;43673;51.058;3.734;2023-09-07T03:49:02;19.40;99.90
57843;DHT22;43673;51.058;3.734;2023-09-07T03:51:28;19.40;99.90
57843;DHT22;43673;51.058;3.734;2023-09-07T03:53:53;19.40;99.90
57843;DHT22;43673;51.058;3.734;2023-09-07T03:56:19;19.40;99.90
57843;DHT22;43673;51.058;3.734;2023-09-07T03:58:45;19.40;99.90
57843;DHT22;43673;51.058;3.734;2023-09-07T04:01:13;19.40;99.90
57843;DHT22;43673;51.058;3.734;2023-09-07T04:03:39;19.40;99.90
57843;DHT22;43673;51.058;3.734;2023-09-07T04:06:05;19.40;99.90
57843;DHT22;43673;51.058;3.734;2023-09-07T04:08:32;19.40;99.90
57843;DHT22;43673;51.058;3.734;2023-09-07T04:10:57;19.40;99.90
57843;DHT22;43673;51.058;3.734;2023-09-07T04:13:23;19.40;99.90
57843;DHT22;43673;51.058;3.734;2023-09-07T04:15:49;19.30;99.90
57843;DHT22;43673;51.058;3.734;2023-09-07T04:18:15;19.30;99.90
57843;DHT22;43673;51.058;3.734;2023-09-07T04:20:42;19.30;99.90
57843;DHT22;43673;51.058;3.734;2023-09-07T04:23:08;19.20;99.90
57843;DHT22;43673;51.058;3.734;2023-09-07T04:25:34;19.10;99.90
57843;DHT22;43673;51.058;3.734;2023-09-07T04:27:59;19.20;99.90
57843;DHT22;43673;51.058;3.734;2023-09-07T04:30:25;19.20;99.90
57843;DHT22;43673;51.058;3.734;2023-09-07T04:32:51;19.30;99.90
57843;DHT22;43673;51.058;3.734;2023-09-07T04:35:17;19.30;99.90
57843;DHT22;43673;51.058;3.734;2023-09-07T04:37:44;19.20;99.90
57843;DHT22;43673;51.058;3.734;2023-09-07T04:40:10;19.30;99.90
57843;DHT22;43673;51.058;3.734;2023-09-07T04:42:36;19.20;99.90
57843;DHT22;43673;51.058;3.734;2023-09-07T04:45:05;19.20;99.90
57843;DHT22;43673;51.058;3.734;2023-09-07T04:47:34;19.30;99.90
57843;DHT22;43673;51.058;3.734;2023-09-07T04:49:59;19.30;99.90
57843;DHT22;43673;51.058;3.734;2023-09-07T04:52:25;19.30;99.90
57843;DHT22;43673;51.058;3.734;2023-09-07T04:54:51;19.20;99.90
57843;DHT22;43673;51.058;3.734;2023-09-07T04:57:17;19.10;99.90
57843;DHT22;43673;51.058;3.734;2023-09-07T04:59:45;19.20;99.90
57843;DHT22;43673;51.058;3.734;2023-09-07T05:02:11;19.10;99.90
57843;DHT22;43673;51.058;3.734;2023-09-07T05:04:37;19.10;99.90
57843;DHT22;43673;51.058;3.734;2023-09-07T05:07:03;19.20;99.90
57843;DHT22;43673;51.058;3.734;2023-09-07T05:09:29;19.20;99.90
57843;DHT22;43673;51.058;3.734;2023-09-07T05:11:55;19.10;99.90
57843;DHT22;43673;51.058;3.734;2023-09-07T05:14:22;19.00;99.90
57843;DHT22;43673;51.058;3.734;2023-09-07T05:16:48;19.10;99.90
57843;DHT22;43673;51.058;3.734;2023-09-07T05:19:14;19.10;99.90
57843;DHT22;43673;51.058;3.734;2023-09-07T05:21:40;19.10;99.90
57843;DHT22;43673;51.058;3.734;2023-09-07T05:24:06;19.00;99.90
57843;DHT22;43673;51.058;3.734;2023-09-07T05:26:31;19.10;99.90
57843;DHT22;43673;51.058;3.734;2023-09-07T05:28:57;19.10;99.90
57843;DHT22;43673;51.058;3.734;2023-09-07T05:31:23;19.20;99.90
57843;DHT22;43673;51.058;3.734;2023-09-07T05:33:48;19.50;99.90
57843;DHT22;43673;51.058;3.734;2023-09-07T05:36:14;20.00;99.90
57843;DHT22;43673;51.058;3.734;2023-09-07T05:38:40;20.50;99.90
57843;DHT22;43673;51.058;3.734;2023-09-07T05:41:06;21.00;99.90
57843;DHT22;43673;51.058;3.734;2023-09-07T05:43:32;21.60;99.90
57843;DHT22;43673;51.058;3.734;2023-09-07T05:45:58;22.10;99.90
57843;DHT22;43673;51.058;3.734;2023-09-07T05:48:23;22.40;99.90
57843;DHT22;43673;51.058;3.734;2023-09-07T05:50:49;22.70;99.90
57843;DHT22;43673;51.058;3.734;2023-09-07T05:53:15;22.90;99.90
57843;DHT22;43673;51.058;3.734;2023-09-07T05:55:40;23.20;99.90
57843;DHT22;43673;51.058;3.734;2023-09-07T05:58:08;23.60;99.90
57843;DHT22;43673;51.058;3.734;2023-09-07T06:00:37;24.20;99.90
57843;DHT22;43673;51.058;3.734;2023-09-07T06:03:05;24.90;99.90
57843;DHT22;43673;51.058;3.734;2023-09-07T06:05:32;25.70;99.90
57843;DHT22;43673;51.058;3.734;2023-09-07T06:07:58;26.40;99.90
57843;DHT22;43673;51.058;3.734;2023-09-07T06:10:24;27.20;99.90
57843;DHT22;43673;51.058;3.734;2023-09-07T06:12:50;27.40;99.90
57843;DHT22;43673;51.058;3.734;2023-09-07T06:15:16;27.80;99.90
57843;DHT22;43673;51.058;3.734;2023-09-07T06:17:42;28.00;99.90
57843;DHT22;43673;51.058;3.734;2023-09-07T06:20:09;28.10;99.90
57843;DHT22;43673;51.058;3.734;2023-09-07T06:22:34;28.30;99.90
57843;DHT22;43673;51.058;3.734;2023-09-07T06:25:00;28.50;99.90
57843;DHT22;43673;51.058;3.734;2023-09-07T06:27:26;28.90;99.90
57843;DHT22;43673;51.058;3.734;2023-09-07T06:29:52;29.00;99.90
57843;DHT22;43673;51.058;3.734;2023-09-07T06:32:17;29.50;99.90
57843;DHT22;43673;51.058;3.734;2023-09-07T06:34:44;30.10;99.90
57843;DHT22;43673;51.058;3.734;2023-09-07T06:37:10;30.80;99.90
57843;DHT22;43673;51.058;3.734;2023-09-07T06:39:36;30.70;99.40
57843;DHT22;43673;51.058;3.734;2023-09-07T06:42:02;30.80;99.10
57843;DHT22;43673;51.058;3.734;2023-09-07T06:44:29;30.90;98.90
57843;DHT22;43673;51.058;3.734;2023-09-07T06:46:57;30.70;98.50
57843;DHT22;43673;51.058;3.734;2023-09-07T06:49:23;30.90;97.80
57843;DHT22;43673;51.058;3.734;2023-09-07T06:51:48;31.40;97.50
57843;DHT22;43673;51.058;3.734;2023-09-07T06:54:14;31.80;96.50
57843;DHT22;43673;51.058;3.734;2023-09-07T06:56:40;32.30;95.70
57843;DHT22;43673;51.058;3.734;2023-09-07T06:59:05;32.80;94.70
57843;DHT22;43673;51.058;3.734;2023-09-07T07:01:31;33.60;93.40
57843;DHT22;43673;51.058;3.734;2023-09-07T07:03:57;34.10;92.60
57843;DHT22;43673;51.058;3.734;2023-09-07T07:06:23;34.40;91.50
57843;DHT22;43673;51.058;3.734;2023-09-07T07:08:49;34.30;91.10
57843;DHT22;43673;51.058;3.734;2023-09-07T07:11:15;35.00;89.80
57843;DHT22;43673;51.058;3.734;2023-09-07T07:13:41;35.60;87.70
57843;DHT22;43673;51.058;3.734;2023-09-07T07:16:06;36.20;85.80
57843;DHT22;43673;51.058;3.734;2023-09-07T07:18:32;35.90;83.60
57843;DHT22;43673;51.058;3.734;2023-09-07T07:20:58;35.80;82.60
57843;DHT22;43673;51.058;3.734;2023-09-07T07:23:24;35.50;81.80
57843;DHT22;43673;51.058;3.734;2023-09-07T07:25:49;35.30;81.00
57843;DHT22;43673;51.058;3.734;2023-09-07T07:28:16;35.20;81.80
57843;DHT22;43673;51.058;3.734;2023-09-07T07:30:42;35.30;81.00
57843;DHT22;43673;51.058;3.734;2023-09-07T07:33:08;34.80;81.20
57843;DHT22;43673;51.058;3.734;2023-09-07T07:35:34;34.90;81.70
57843;DHT22;43673;51.058;3.734;2023-09-07T07:38:01;34.90;80.70
57843;DHT22;43673;51.058;3.734;2023-09-07T07:40:27;34.40;81.00
57843;DHT22;43673;51.058;3.734;2023-09-07T07:42:53;33.80;82.70
57843;DHT22;43673;51.058;3.734;2023-09-07T07:45:19;33.70;83.50
57843;DHT22;43673;51.058;3.734;2023-09-07T07:47:46;33.20;84.10
57843;DHT22;43673;51.058;3.734;2023-09-07T07:50:12;32.70;86.60
57843;DHT22;43673;51.058;3.734;2023-09-07T07:52:38;33.30;85.00
57843;DHT22;43673;51.058;3.734;2023-09-07T07:55:04;33.70;84.80
57843;DHT22;43673;51.058;3.734;2023-09-07T07:57:31;33.60;83.50
57843;DHT22;43673;51.058;3.734;2023-09-07T07:59:56;32.80;84.00
57843;DHT22;43673;51.058;3.734;2023-09-07T08:02:22;32.90;84.70
57843;DHT22;43673;51.058;3.734;2023-09-07T08:04:48;33.20;84.90
57843;DHT22;43673;51.058;3.734;2023-09-07T08:07:14;33.00;84.30
57843;DHT22;43673;51.058;3.734;2023-09-07T08:09:40;33.50;84.30
57843;DHT22;43673;51.058;3.734;2023-09-07T08:12:06;33.80;83.60
57843;DHT22;43673;51.058;3.734;2023-09-07T08:14:33;34.10;81.80
57843;DHT22;43673;51.058;3.734;2023-09-07T08:16:58;34.30;81.10
57843;DHT22;43673;51.058;3.734;2023-09-07T08:19:25;34.30;80.80
57843;DHT22;43673;51.058;3.734;2023-09-07T08:21:53;33.90;81.80
57843;DHT22;43673;51.058;3.734;2023-09-07T08:24:19;34.00;82.20
57843;DHT22;43673;51.058;3.734;2023-09-07T08:26:44;34.20;81.80
57843;DHT22;43673;51.058;3.734;2023-09-07T08:29:10;33.80;81.80
57843;DHT22;43673;51.058;3.734;2023-09-07T08:31:40;33.70;81.80
57843;DHT22;43673;51.058;3.734;2023-09-07T08:34:07;33.50;82.20
57843;DHT22;43673;51.058;3.734;2023-09-07T08:36:35;34.20;81.70
57843;DHT22;43673;51.058;3.734;2023-09-07T08:39:01;34.60;80.90
57843;DHT22;43673;51.058;3.734;2023-09-07T08:41:32;34.90;79.70
57843;DHT22;43673;51.058;3.734;2023-09-07T08:44:04;34.10;80.30
57843;DHT22;43673;51.058;3.734;2023-09-07T08:46:31;34.00;81.20
57843;DHT22;43673;51.058;3.734;2023-09-07T08:48:59;33.20;83.50
57843;DHT22;43673;51.058;3.734;2023-09-07T08:51:27;33.00;83.60
57843;DHT22;43673;51.058;3.734;2023-09-07T08:54:00;33.00;85.00
57843;DHT22;43673;51.058;3.734;2023-09-07T08:56:26;33.50;83.00
57843;DHT22;43673;51.058;3.734;2023-09-07T08:58:52;32.90;83.70
57843;DHT22;43673;51.058;3.734;2023-09-07T09:01:18;33.20;84.40
57843;DHT22;43673;51.058;3.734;2023-09-07T09:03:44;33.60;83.90
57843;DHT22;43673;51.058;3.734;2023-09-07T09:06:11;34.20;83.50
57843;DHT22;43673;51.058;3.734;2023-09-07T09:08:48;33.80;83.80
57843;DHT22;43673;51.058;3.734;2023-09-07T09:11:15;34.00;82.10
57843;DHT22;43673;51.058;3.734;2023-09-07T09:13:42;34.40;82.10
57843;DHT22;43673;51.058;3.734;2023-09-07T09:16:11;35.50;80.50
57843;DHT22;43673;51.058;3.734;2023-09-07T09:18:51;35.60;79.30
57843;DHT22;43673;51.058;3.734;2023-09-07T09:21:19;35.80;79.20
57843;DHT22;43673;51.058;3.734;2023-09-07T09:23:50;35.40;78.60
57843;DHT22;43673;51.058;3.734;2023-09-07T09:26:16;35.80;78.60
57843;DHT22;43673;51.058;3.734;2023-09-07T09:28:43;34.90;78.50
57843;DHT22;43673;51.058;3.734;2023-09-07T09:31:13;34.30;80.30
57843;DHT22;43673;51.058;3.734;2023-09-07T09:33:40;33.50;81.40
57843;DHT22;43673;51.058;3.734;2023-09-07T09:36:07;33.60;82.40
57843;DHT22;43673;51.058;3.734;2023-09-07T09:38:33;34.70;81.10
57843;DHT22;43673;51.058;3.734;2023-09-07T09:41:00;35.60;80.20
57843;DHT22;43673;51.058;3.734;2023-09-07T09:43:26;36.30;78.30
57843;DHT22;43673;51.058;3.734;2023-09-07T09:45:53;36.20;77.50
57843;DHT22;43673;51.058;3.734;2023-09-07T09:48:19;36.30;77.50
57843;DHT22;43673;51.058;3.734;2023-09-07T09:50:49;36.80;76.50
57843;DHT22;43673;51.058;3.734;2023-09-07T09:53:19;36.20;76.40
57843;DHT22;43673;51.058;3.734;2023-09-07T09:55:49;35.50;77.10
57843;DHT22;43673;51.058;3.734;2023-09-07T09:58:15;35.10;77.80
57843;DHT22;43673;51.058;3.734;2023-09-07T10:00:56;34.50;79.20
57843;DHT22;43673;51.058;3.734;2023-09-07T10:03:34;34.50;80.10
57843;DHT22;43673;51.058;3.734;2023-09-07T10:06:28;34.10;80.70
57843;DHT22;43673;51.058;3.734;2023-09-07T10:09:05;33.80;82.00
57843;DHT22;43673;51.058;3.734;2023-09-07T10:11:37;33.80;81.40
57843;DHT22;43673;51.058;3.734;2023-09-07T10:14:04;34.00;81.90
57843;DHT22;43673;51.058;3.734;2023-09-07T10:16:53;34.20;82.00
57843;DHT22;43673;51.058;3.734;2023-09-07T10:19:25;34.40;82.20
57843;DHT22;43673;51.058;3.734;2023-09-07T10:21:53;34.60;80.90
57843;DHT22;43673;51.058;3.734;2023-09-07T10:24:27;34.00;81.50
57843;DHT22;43673;51.058;3.734;2023-09-07T10:26:58;33.60;82.10
57843;DHT22;43673;51.058;3.734;2023-09-07T10:29:25;33.30;83.10
57843;DHT22;43673;51.058;3.734;2023-09-07T10:31:51;33.20;84.30
57843;DHT22;43673;51.058;3.734;2023-09-07T10:34:17;33.50;83.70
57843;DHT22;43673;51.058;3.734;2023-09-07T10:36:43;33.40;83.90
57843;DHT22;43673;51.058;3.734;2023-09-07T10:39:09;33.60;83.90
57843;DHT22;43673;51.058;3.734;2023-09-07T10:41:45;34.00;83.70
57843;DHT22;43673;51.058;3.734;2023-09-07T10:44:11;34.40;82.60
57843;DHT22;43673;51.058;3.734;2023-09-07T10:46:38;34.20;81.80
57843;DHT22;43673;51.058;3.734;2023-09-07T10:49:07;33.50;82.70
57843;DHT22;43673;51.058;3.734;2023-09-07T10:51:46;33.00;84.10
57843;DHT22;43673;51.058;3.734;2023-09-07T10:54:23;32.80;85.30
57843;DHT22;43673;51.058;3.734;2023-09-07T10:56:49;32.90;85.60
57843;DHT22;43673;51.058;3.734;2023-09-07T10:59:16;32.80;85.40
57843;DHT22;43673;51.058;3.734;2023-09-07T11:01:44;32.50;87.40
57843;DHT22;43673;51.058;3.734;2023-09-07T11:04:11;33.10;86.60
57843;DHT22;43673;51.058;3.734;2023-09-07T11:06:38;33.20;86.00
57843;DHT22;43673;51.058;3.734;2023-09-07T11:09:05;33.00;86.10
57843;DHT22;43673;51.058;3.734;2023-09-07T11:11:34;32.50;88.00
57843;DHT22;43673;51.058;3.734;2023-09-07T11:14:02;32.70;87.80
57843;DHT22;43673;51.058;3.734;2023-09-07T11:16:29;32.70;87.90
57843;DHT22;43673;51.058;3.734;2023-09-07T11:18:55;32.70;87.50
57843;DHT22;43673;51.058;3.734;2023-09-07T11:21:21;32.90;88.30
57843;DHT22;43673;51.058;3.734;2023-09-07T11:23:48;32.90;87.10
57843;DHT22;43673;51.058;3.734;2023-09-07T11:26:14;33.20;87.10
57843;DHT22;43673;51.058;3.734;2023-09-07T11:28:46;33.00;88.30
57843;DHT22;43673;51.058;3.734;2023-09-07T11:31:11;33.10;87.50
57843;DHT22;43673;51.058;3.734;2023-09-07T11:33:37;33.80;86.60
57843;DHT22;43673;51.058;3.734;2023-09-07T11:36:04;33.50;87.30
57843;DHT22;43673;51.058;3.734;2023-09-07T11:38:35;32.00;89.60
57843;DHT22;43673;51.058;3.734;2023-09-07T11:41:04;31.60;90.00
57843;DHT22;43673;51.058;3.734;2023-09-07T11:43:30;30.30;91.60
57843;DHT22;43673;51.058;3.734;2023-09-07T11:45:55;29.80;92.70
57843;DHT22;43673;51.058;3.734;2023-09-07T11:48:21;29.70;92.20
57843;DHT22;43673;51.058;3.734;2023-09-07T11:50:47;29.40;93.20
57843;DHT22;43673;51.058;3.734;2023-09-07T11:53:12;29.50;93.40
57843;DHT22;43673;51.058;3.734;2023-09-07T11:55:39;29.50;93.40
57843;DHT22;43673;51.058;3.734;2023-09-07T11:58:06;29.50;93.30
57843;DHT22;43673;51.058;3.734;2023-09-07T12:00:32;29.30;93.50
57843;DHT22;43673;51.058;3.734;2023-09-07T12:02:58;29.20;93.90
57843;DHT22;43673;51.058;3.734;2023-09-07T12:05:24;29.20;93.80
57843;DHT22;43673;51.058;3.734;2023-09-07T12:07:50;29.20;94.10
57843;DHT22;43673;51.058;3.734;2023-09-07T12:10:15;29.10;93.80
57843;DHT22;43673;51.058;3.734;2023-09-07T12:12:42;29.10;93.80
57843;DHT22;43673;51.058;3.734;2023-09-07T12:15:09;29.10;94.30
57843;DHT22;43673;51.058;3.734;2023-09-07T12:17:37;28.90;94.50
57843;DHT22;43673;51.058;3.734;2023-09-07T12:20:03;28.80;94.30
57843;DHT22;43673;51.058;3.734;2023-09-07T12:22:30;28.80;94.40
57843;DHT22;43673;51.058;3.734;2023-09-07T12:25:00;28.80;94.50
57843;DHT22;43673;51.058;3.734;2023-09-07T12:27:28;29.00;94.10
57843;DHT22;43673;51.058;3.734;2023-09-07T12:29:54;29.10;94.10
57843;DHT22;43673;51.058;3.734;2023-09-07T12:32:22;29.10;93.50
57843;DHT22;43673;51.058;3.734;2023-09-07T12:34:48;29.20;93.30
57843;DHT22;43673;51.058;3.734;2023-09-07T12:37:19;29.20;93.00
57843;DHT22;43673;51.058;3.734;2023-09-07T12:39:44;29.30;93.30
57843;DHT22;43673;51.058;3.734;2023-09-07T12:42:16;29.20;92.90
57843;DHT22;43673;51.058;3.734;2023-09-07T12:44:49;29.30;92.00
57843;DHT22;43673;51.058;3.734;2023-09-07T12:47:15;29.40;92.40
57843;DHT22;43673;51.058;3.734;2023-09-07T12:49:41;29.30;92.50
57843;DHT22;43673;51.058;3.734;2023-09-07T12:52:07;29.40;92.50
57843;DHT22;43673;51.058;3.734;2023-09-07T12:54:38;29.50;91.70
57843;DHT22;43673;51.058;3.734;2023-09-07T12:57:03;29.40;92.20
57843;DHT22;43673;51.058;3.734;2023-09-07T12:59:29;29.50;92.50
57843;DHT22;43673;51.058;3.734;2023-09-07T13:01:55;29.70;90.50
57843;DHT22;43673;51.058;3.734;2023-09-07T13:04:23;29.60;90.50
57843;DHT22;43673;51.058;3.734;2023-09-07T13:06:49;29.60;90.70
57843;DHT22;43673;51.058;3.734;2023-09-07T13:09:15;29.80;90.80
57843;DHT22;43673;51.058;3.734;2023-09-07T13:11:40;29.90;90.10
57843;DHT22;43673;51.058;3.734;2023-09-07T13:14:06;30.10;90.20
57843;DHT22;43673;51.058;3.734;2023-09-07T13:16:33;30.00;90.10
57843;DHT22;43673;51.058;3.734;2023-09-07T13:18:59;29.90;90.10
57843;DHT22;43673;51.058;3.734;2023-09-07T13:21:25;29.90;90.20
57843;DHT22;43673;51.058;3.734;2023-09-07T13:23:51;29.90;90.00
57843;DHT22;43673;51.058;3.734;2023-09-07T13:26:17;30.00;90.00
57843;DHT22;43673;51.058;3.734;2023-09-07T13:28:42;30.10;90.10
57843;DHT22;43673;51.058;3.734;2023-09-07T13:31:08;30.20;89.50
57843;DHT22;43673;51.058;3.734;2023-09-07T13:33:34;30.10;90.30
57843;DHT22;43673;51.058;3.734;2023-09-07T13:35:59;30.00;90.10
57843;DHT22;43673;51.058;3.734;2023-09-07T13:38:25;29.90;90.40
57843;DHT22;43673;51.058;3.734;2023-09-07T13:40:51;30.00;90.40
57843;DHT22;43673;51.058;3.734;2023-09-07T13:43:17;30.10;90.40
57843;DHT22;43673;51.058;3.734;2023-09-07T13:45:42;30.20;90.70
57843;DHT22;43673;51.058;3.734;2023-09-07T13:48:09;30.20;90.70
57843;DHT22;43673;51.058;3.734;2023-09-07T13:50:35;30.00;91.00
57843;DHT22;43673;51.058;3.734;2023-09-07T13:53:00;30.10;91.00
57843;DHT22;43673;51.058;3.734;2023-09-07T13:55:26;30.20;90.30
57843;DHT22;43673;51.058;3.734;2023-09-07T13:57:52;30.30;90.10
57843;DHT22;43673;51.058;3.734;2023-09-07T14:00:17;30.20;90.40
57843;DHT22;43673;51.058;3.734;2023-09-07T14:02:43;30.10;90.70
57843;DHT22;43673;51.058;3.734;2023-09-07T14:05:09;30.20;90.80
57843;DHT22;43673;51.058;3.734;2023-09-07T14:07:35;30.20;90.70
57843;DHT22;43673;51.058;3.734;2023-09-07T14:10:07;30.20;90.70
57843;DHT22;43673;51.058;3.734;2023-09-07T14:12:32;30.10;90.90
57843;DHT22;43673;51.058;3.734;2023-09-07T14:14:58;30.20;91.10
57843;DHT22;43673;51.058;3.734;2023-09-07T14:17:24;30.40;90.90
57843;DHT22;43673;51.058;3.734;2023-09-07T14:19:49;30.50;90.70
57843;DHT22;43673;51.058;3.734;2023-09-07T14:22:15;30.50;90.40
57843;DHT22;43673;51.058;3.734;2023-09-07T14:24:41;30.50;90.40
57843;DHT22;43673;51.058;3.734;2023-09-07T14:27:06;30.30;90.70
57843;DHT22;43673;51.058;3.734;2023-09-07T14:29:34;30.20;91.40
57843;DHT22;43673;51.058;3.734;2023-09-07T14:32:01;30.20;91.10
57843;DHT22;43673;51.058;3.734;2023-09-07T14:34:26;30.40;91.10
57843;DHT22;43673;51.058;3.734;2023-09-07T14:36:52;30.20;91.30
57843;DHT22;43673;51.058;3.734;2023-09-07T14:39:18;30.40;91.00
57843;DHT22;43673;51.058;3.734;2023-09-07T14:41:49;30.50;90.70
57843;DHT22;43673;51.058;3.734;2023-09-07T14:44:18;30.40;90.50
57843;DHT22;43673;51.058;3.734;2023-09-07T14:46:44;30.50;90.70
57843;DHT22;43673;51.058;3.734;2023-09-07T14:49:16;30.60;90.60
57843;DHT22;43673;51.058;3.734;2023-09-07T14:51:46;30.60;90.60
57843;DHT22;43673;51.058;3.734;2023-09-07T14:54:12;30.60;91.10
57843;DHT22;43673;51.058;3.734;2023-09-07T14:56:38;30.70;90.50
57843;DHT22;43673;51.058;3.734;2023-09-07T14:59:05;30.80;89.70
57843;DHT22;43673;51.058;3.734;2023-09-07T15:01:31;30.90;89.00
57843;DHT22;43673;51.058;3.734;2023-09-07T15:03:57;30.90;89.20
57843;DHT22;43673;51.058;3.734;2023-09-07T15:06:23;30.90;89.00
57843;DHT22;43673;51.058;3.734;2023-09-07T15:08:48;30.90;87.80
57843;DHT22;43673;51.058;3.734;2023-09-07T15:11:15;31.10;87.60
57843;DHT22;43673;51.058;3.734;2023-09-07T15:13:41;31.10;87.60
57843;DHT22;43673;51.058;3.734;2023-09-07T15:16:07;30.90;88.00
57843;DHT22;43673;51.058;3.734;2023-09-07T15:18:34;31.00;87.80
57843;DHT22;43673;51.058;3.734;2023-09-07T15:21:00;31.00;86.60
57843;DHT22;43673;51.058;3.734;2023-09-07T15:23:25;30.80;86.80
57843;DHT22;43673;51.058;3.734;2023-09-07T15:25:52;30.50;86.90
57843;DHT22;43673;51.058;3.734;2023-09-07T15:28:18;30.40;87.40